Time,TemperatureF,DewpointF,PressureIn,WindDirection,WindDirectionDegrees,WindSpeedMPH,WindSpeedGustMPH,Humidity,HourlyPrecipIn,Conditions,Clouds,dailyrainin,SoftwareType,DateUTC
2013-09-09 00:11:00,61.6,59.0,30.02,NE,55,0.0,0.0,91,0.00,,,0.00,weatherlink.com 1.10,2013-09-09 04:11:00,
2013-09-09 00:26:00,61.3,59.0,30.03,NE,55,0.0,0.0,91,0.00,,,0.00,weatherlink.com 1.10,2013-09-09 04:26:00,
2013-09-09 00:41:00,61.1,59.0,30.03,NE,55,0.0,0.0,92,0.00,,,0.00,weatherlink.com 1.10,2013-09-09 04:41:00,
2013-09-09 00:56:00,61.1,59.0,30.03,NE,55,0.0,0.0,92,0.00,,,0.00,weatherlink.com 1.10,2013-09-09 04:56:00,
2013-09-09 01:11:00,61.1,59.0,30.03,NE,55,0.0,0.0,93,0.00,,,0.00,weatherlink.com 1.10,2013-09-09 05:11:00,
2013-09-09 01:26:00,61.3,59.0,30.04,NE,55,0.0,0.0,93,0.00,,,0.00,weatherlink.com 1.10,2013-09-09 05:26:00,
2013-09-09 01:41:00,61.2,59.0,30.04,NE,55,0.0,0.0,92,0.00,,,0.00,weatherlink.com 1.10,2013-09-09 05:41:00,
2013-09-09 01:57:00,61.1,59.0,30.04,NE,55,0.0,0.0,92,0.00,,,0.00,weatherlink.com 1.10,2013-09-09 05:57:00,
2013-09-09 02:12:00,61.0,59.0,30.04,NE,55,0.0,0.0,92,0.00,,,0.00,weatherlink.com 1.10,2013-09-09 06:12:00,
2013-09-09 02:27:00,61.0,59.0,30.04,NE,55,0.0,0.0,93,0.00,,,0.00,weatherlink.com 1.10,2013-09-09 06:27:00,
2013-09-09 02:42:00,61.0,59.0,30.04,NE,55,0.0,0.0,93,0.00,,,0.00,weatherlink.com 1.10,2013-09-09 06:42:00,
2013-09-09 02:57:00,61.0,59.0,30.04,NE,55,0.0,0.0,93,0.00,,,0.00,weatherlink.com 1.10,2013-09-09 06:57:00,
2013-09-09 03:12:00,61.0,59.0,30.04,NE,55,0.0,0.0,93,0.00,,,0.00,weatherlink.com 1.10,2013-09-09 07:12:00,
2013-09-09 03:27:00,60.9,59.0,30.04,NE,55,0.0,0.0,93,0.00,,,0.00,weatherlink.com 1.10,2013-09-09 07:27:00,
2013-09-09 03:42:00,60.7,59.0,30.04,NE,55,0.0,0.0,93,0.00,,,0.00,weatherlink.com 1.10,2013-09-09 07:42:00,
2013-09-09 03:57:00,60.5,59.0,30.04,NE,55,0.0,1.0,93,0.00,,,0.00,weatherlink.com 1.10,2013-09-09 07:57:00,
2013-09-09 04:12:00,60.4,58.0,30.04,NE,55,0.0,0.0,93,0.00,,,0.00,weatherlink.com 1.10,2013-09-09 08:12:00,
2013-09-09 04:27:00,60.4,58.0,30.05,NE,55,0.0,0.0,93,0.00,,,0.00,weatherlink.com 1.10,2013-09-09 08:27:00,
2013-09-09 04:42:00,60.2,58.0,30.04,NE,55,0.0,0.0,93,0.00,,,0.00,weatherlink.com 1.10,2013-09-09 08:42:00,
2013-09-09 04:57:00,60.1,58.0,30.05,NE,55,0.0,0.0,93,0.00,,,0.00,weatherlink.com 1.10,2013-09-09 08:57:00,
2013-09-09 05:12:00,60.1,58.0,30.05,NE,55,0.0,0.0,93,0.00,,,0.00,weatherlink.com 1.10,2013-09-09 09:12:00,
2013-09-09 05:29:00,60.1,58.0,30.05,NE,55,0.0,0.0,93,0.00,,,0.00,weatherlink.com 1.10,2013-09-09 09:29:00,
2013-09-09 05:42:00,60.1,58.0,30.05,NE,55,0.0,0.0,93,0.00,,,0.00,weatherlink.com 1.10,2013-09-09 09:42:00,
2013-09-09 05:57:00,60.2,58.0,30.05,NE,55,0.0,0.0,93,0.00,,,0.00,weatherlink.com 1.10,2013-09-09 09:57:00,
2013-09-09 06:12:00,60.2,58.0,30.05,NE,55,0.0,0.0,93,0.00,,,0.00,weatherlink.com 1.10,2013-09-09 10:12:00,
2013-09-09 06:27:00,60.1,58.0,30.06,NE,55,0.0,1.0,93,0.00,,,0.00,weatherlink.com 1.10,2013-09-09 10:27:00,
2013-09-09 06:42:00,60.0,58.0,30.06,NE,55,0.0,0.0,93,0.00,,,0.00,weatherlink.com 1.10,2013-09-09 10:42:00,
2013-09-09 06:57:00,59.7,58.0,30.07,NE,55,0.0,0.0,93,0.00,,,0.00,weatherlink.com 1.10,2013-09-09 10:57:00,
2013-09-09 07:12:00,59.6,58.0,30.07,NE,55,0.0,1.0,93,0.00,,,0.00,weatherlink.com 1.10,2013-09-09 11:12:00,
2013-09-09 07:27:00,59.5,58.0,30.07,NNW,341,0.0,0.0,94,0.00,,,0.00,weatherlink.com 1.10,2013-09-09 11:27:00,
2013-09-09 07:42:00,59.5,58.0,30.08,NNW,341,0.0,0.0,94,0.00,,,0.00,weatherlink.com 1.10,2013-09-09 11:42:00,
2013-09-09 07:57:00,59.4,58.0,30.08,NNW,341,0.0,0.0,94,0.00,,,0.00,weatherlink.com 1.10,2013-09-09 11:57:00,
2013-09-09 08:12:00,59.3,57.0,30.08,NNW,341,0.0,0.0,93,0.00,,,0.00,weatherlink.com 1.10,2013-09-09 12:12:00,
2013-09-09 08:27:00,59.5,58.0,30.09,NNW,338,0.0,0.0,94,0.00,,,0.00,weatherlink.com 1.10,2013-09-09 12:27:00,
2013-09-09 08:42:00,60.1,58.0,30.09,NNW,338,0.0,0.0,94,0.00,,,0.00,weatherlink.com 1.10,2013-09-09 12:42:00,
2013-09-09 08:57:00,60.8,59.0,30.09,NNW,338,0.0,0.0,94,0.00,,,0.00,weatherlink.com 1.10,2013-09-09 12:57:00,
2013-09-09 09:14:00,64.5,62.0,30.09,NNW,338,0.0,0.0,90,0.00,,,0.00,weatherlink.com 1.10,2013-09-09 13:14:00,
2013-09-09 09:27:00,66.6,62.0,30.09,WNW,300,0.0,3.0,84,0.00,,,0.00,weatherlink.com 1.10,2013-09-09 13:27:00,
2013-09-09 09:42:00,69.4,64.0,30.10,WNW,300,0.0,2.0,82,0.00,,,0.00,weatherlink.com 1.10,2013-09-09 13:42:00,
2013-09-09 09:57:00,73.2,66.0,30.09,WNW,300,0.0,1.0,77,0.00,,,0.00,weatherlink.com 1.10,2013-09-09 13:57:00,
2013-09-09 10:12:00,74.0,66.0,30.09,WNW,300,0.0,1.0,76,0.00,,,0.00,weatherlink.com 1.10,2013-09-09 14:12:00,
2013-09-09 10:27:00,74.5,66.0,30.09,WNW,286,0.0,4.0,74,0.00,,,0.00,weatherlink.com 1.10,2013-09-09 14:27:00,
2013-09-09 10:42:00,73.9,66.0,30.09,ENE,63,2.0,6.0,76,0.00,,,0.00,weatherlink.com 1.10,2013-09-09 14:42:00,
2013-09-09 10:57:00,77.1,67.0,30.09,ENE,60,0.0,3.0,71,0.00,,,0.00,weatherlink.com 1.10,2013-09-09 14:57:00,
2013-09-09 11:12:00,79.1,66.0,30.09,WNW,282,2.0,4.0,65,0.00,,,0.00,weatherlink.com 1.10,2013-09-09 15:12:00,
2013-09-09 11:28:00,80.9,66.0,30.09,WNW,286,0.0,3.0,61,0.00,,,0.00,weatherlink.com 1.10,2013-09-09 15:28:00,
2013-09-09 11:43:00,80.0,67.0,30.09,West,275,1.0,4.0,65,0.00,,,0.00,weatherlink.com 1.10,2013-09-09 15:43:00,
2013-09-09 11:58:00,81.4,69.0,30.09,WSW,250,3.0,5.0,65,0.00,,,0.00,weatherlink.com 1.10,2013-09-09 15:58:00,
2013-09-09 12:13:00,81.5,65.0,30.09,WSW,243,3.0,4.0,58,0.00,,,0.00,weatherlink.com 1.10,2013-09-09 16:13:00,
2013-09-09 12:28:00,79.2,65.0,30.09,WSW,243,0.0,5.0,63,0.00,,,0.00,weatherlink.com 1.10,2013-09-09 16:28:00,
2013-09-09 12:43:00,81.1,66.0,30.09,WSW,237,1.0,3.0,60,0.00,,,0.00,weatherlink.com 1.10,2013-09-09 16:43:00,
2013-09-09 12:59:00,81.1,66.0,30.09,WNW,284,4.0,5.0,61,0.00,,,0.00,weatherlink.com 1.10,2013-09-09 16:59:00,
2013-09-09 13:13:00,81.0,66.0,30.08,WSW,242,3.0,5.0,61,0.00,,,0.00,weatherlink.com 1.10,2013-09-09 17:13:00,
2013-09-09 13:28:00,80.1,65.0,30.08,SSW,205,1.0,5.0,61,0.00,,,0.00,weatherlink.com 1.10,2013-09-09 17:28:00,
2013-09-09 13:43:00,79.4,65.0,30.08,West,277,2.0,5.0,62,0.00,,,0.00,weatherlink.com 1.10,2013-09-09 17:43:00,
2013-09-09 13:58:00,79.6,65.0,30.08,WNW,292,4.0,6.0,62,0.00,,,0.00,weatherlink.com 1.10,2013-09-09 17:58:00,
2013-09-09 14:13:00,79.7,65.0,30.08,SW,234,0.0,7.0,61,0.00,,,0.00,weatherlink.com 1.10,2013-09-09 18:13:00,
2013-09-09 14:28:00,80.3,66.0,30.08,West,261,0.0,5.0,62,0.00,,,0.00,weatherlink.com 1.10,2013-09-09 18:28:00,
2013-09-09 14:43:00,80.4,66.0,30.08,SW,222,3.0,3.0,61,0.00,,,0.00,weatherlink.com 1.10,2013-09-09 18:43:00,
2013-09-09 14:58:00,79.6,67.0,30.08,West,267,2.0,4.0,65,0.00,,,0.00,weatherlink.com 1.10,2013-09-09 18:58:00,
2013-09-09 15:13:00,79.0,65.0,30.07,SW,219,1.0,6.0,63,0.00,,,0.00,weatherlink.com 1.10,2013-09-09 19:13:00,
2013-09-09 15:28:00,78.8,65.0,30.07,SW,225,1.0,4.0,63,0.00,,,0.00,weatherlink.com 1.10,2013-09-09 19:28:00,
2013-09-09 15:43:00,78.6,66.0,30.07,SSW,213,1.0,4.0,65,0.00,,,0.00,weatherlink.com 1.10,2013-09-09 19:43:00,
2013-09-09 15:58:00,78.6,66.0,30.07,WSW,250,0.0,3.0,66,0.00,,,0.00,weatherlink.com 1.10,2013-09-09 19:58:00,
2013-09-09 16:13:00,77.9,66.0,30.07,West,273,0.0,2.0,67,0.00,,,0.00,weatherlink.com 1.10,2013-09-09 20:13:00,
2013-09-09 16:43:00,76.8,67.0,30.07,WSW,248,0.0,3.0,71,0.00,,,0.00,weatherlink.com 1.10,2013-09-09 20:43:00,
2013-09-09 16:58:00,76.3,65.0,30.07,SW,232,0.0,2.0,69,0.00,,,0.00,weatherlink.com 1.10,2013-09-09 20:58:00,
2013-09-09 17:13:00,75.9,66.0,30.07,WSW,238,0.0,4.0,71,0.00,,,0.00,weatherlink.com 1.10,2013-09-09 21:13:00,
2013-09-09 17:28:00,76.3,66.0,30.06,WSW,246,2.0,3.0,71,0.00,,,0.00,weatherlink.com 1.10,2013-09-09 21:28:00,
2013-09-09 17:43:00,76.7,66.0,30.07,WNW,290,0.0,2.0,70,0.00,,,0.00,weatherlink.com 1.10,2013-09-09 21:43:00,
2013-09-09 17:58:00,76.5,66.0,30.07,WNW,284,0.0,2.0,71,0.00,,,0.00,weatherlink.com 1.10,2013-09-09 21:58:00,
2013-09-09 18:13:00,75.6,66.0,30.07,WSW,242,0.0,3.0,71,0.00,,,0.00,weatherlink.com 1.10,2013-09-09 22:13:00,
2013-09-09 18:28:00,74.9,65.0,30.07,WSW,242,0.0,3.0,72,0.00,,,0.00,weatherlink.com 1.10,2013-09-09 22:28:00,
2013-09-09 18:43:00,74.3,66.0,30.07,WSW,242,0.0,2.0,75,0.00,,,0.00,weatherlink.com 1.10,2013-09-09 22:43:00,
2013-09-09 18:58:00,73.6,66.0,30.07,WSW,242,0.0,2.0,77,0.00,,,0.00,weatherlink.com 1.10,2013-09-09 22:58:00,
2013-09-09 19:13:00,72.7,66.0,30.07,WSW,242,1.0,1.0,78,0.00,,,0.00,weatherlink.com 1.10,2013-09-09 23:13:00,
2013-09-09 19:28:00,71.1,65.0,30.08,WSW,242,0.0,1.0,81,0.00,,,0.00,weatherlink.com 1.10,2013-09-09 23:28:00,
2013-09-09 19:43:00,70.1,65.0,30.08,WSW,242,0.0,1.0,83,0.00,,,0.00,weatherlink.com 1.10,2013-09-09 23:43:00,
2013-09-09 19:58:00,69.0,64.0,30.09,WSW,242,0.0,0.0,84,0.00,,,0.00,weatherlink.com 1.10,2013-09-09 23:58:00,
2013-09-09 20:13:00,68.2,64.0,30.09,WSW,242,0.0,1.0,86,0.00,,,0.00,weatherlink.com 1.10,2013-09-10 00:13:00,
2013-09-09 20:28:00,67.5,64.0,30.10,WSW,242,1.0,1.0,88,0.00,,,0.00,weatherlink.com 1.10,2013-09-10 00:28:00,
2013-09-09 20:43:00,67.0,63.0,30.10,WSW,242,1.0,1.0,88,0.00,,,0.00,weatherlink.com 1.10,2013-09-10 00:43:00,
2013-09-09 20:58:00,66.5,63.0,30.10,WSW,242,0.0,2.0,89,0.00,,,0.00,weatherlink.com 1.10,2013-09-10 00:58:00,
2013-09-09 21:13:00,66.1,63.0,30.10,WSW,242,0.0,2.0,90,0.00,,,0.00,weatherlink.com 1.10,2013-09-10 01:13:00,
2013-09-09 21:28:00,65.6,63.0,30.11,WSW,242,0.0,2.0,90,0.00,,,0.00,weatherlink.com 1.10,2013-09-10 01:28:00,
2013-09-09 21:43:00,65.3,62.0,30.11,WSW,242,1.0,2.0,90,0.00,,,0.00,weatherlink.com 1.10,2013-09-10 01:43:00,
2013-09-09 21:58:00,65.0,62.0,30.11,WSW,242,1.0,2.0,91,0.00,,,0.00,weatherlink.com 1.10,2013-09-10 01:58:00,
2013-09-09 22:13:00,64.8,62.0,30.11,WSW,242,0.0,1.0,91,0.00,,,0.00,weatherlink.com 1.10,2013-09-10 02:13:00,
2013-09-09 22:28:00,64.4,62.0,30.12,WSW,242,0.0,2.0,91,0.00,,,0.00,weatherlink.com 1.10,2013-09-10 02:28:00,
2013-09-09 22:43:00,64.2,62.0,30.12,WSW,242,0.0,0.0,92,0.00,,,0.00,weatherlink.com 1.10,2013-09-10 02:43:00,
2013-09-09 22:58:00,64.1,62.0,30.13,West,273,0.0,4.0,92,0.00,,,0.00,weatherlink.com 1.10,2013-09-10 02:58:00,
2013-09-09 23:13:00,63.8,62.0,30.13,West,273,0.0,2.0,92,0.00,,,0.00,weatherlink.com 1.10,2013-09-10 03:13:00,
2013-09-09 23:28:00,63.4,61.0,30.14,West,273,0.0,0.0,91,0.00,,,0.00,weatherlink.com 1.10,2013-09-10 03:28:00,
2013-09-09 23:43:00,63.2,61.0,30.14,West,273,0.0,0.0,91,0.00,,,0.00,weatherlink.com 1.10,2013-09-10 03:43:00,
2013-09-09 23:59:00,62.8,61.0,30.14,West,272,0.0,0.0,92,0.00,,,0.00,weatherlink.com 1.10,2013-09-10 03:59:00,